Time;durP1;ratioP1;P1;durP2;ratioP2;P2;SDS_P1;SDS_P2;PMS_P1;PMS_P2;Temp;Humidity;BMP_temperature;BMP_pressure;BME280_temperature;BME280_humidity;BME280_pressure;Samples;Min_cycle;Max_cycle;Signal;HPM_P1;HPM_P2
2021/05/16 00:01:01;;;;;;;13.62;5.92;;;;;;;14.34;69.27;99515.46;1672952;84;34680;-75
2021/05/16 00:03:26;;;;;;;12.15;6.42;;;;;;;14.33;69.34;99519.12;1672879;84;32297;-75
2021/05/16 00:05:52;;;;;;;9.18;5.25;;;;;;;14.33;69.12;99518.31;1673267;84;25583;-75
2021/05/16 00:08:18;;;;;;;9.60;5.42;;;;;;;14.37;69.23;99516.34;1672144;84;33137;-75
2021/05/16 00:10:44;;;;;;;9.55;6.20;;;;;;;14.39;69.16;99514.84;1672104;84;31548;-75
2021/05/16 00:13:11;;;;;;;11.88;5.60;;;;;;;14.41;69.61;99516.24;1674652;84;26333;-75
2021/05/16 00:15:38;;;;;;;10.98;6.08;;;;;;;14.42;69.52;99511.27;1673304;84;25817;-74
2021/05/16 00:18:04;;;;;;;10.63;6.53;;;;;;;14.33;69.33;99512.55;1672513;84;25524;-75
2021/05/16 00:20:33;;;;;;;10.28;6.97;;;;;;;14.23;69.51;99506.92;1673055;84;25560;-74
2021/05/16 00:22:59;;;;;;;8.80;6.25;;;;;;;14.18;69.86;99501.48;1673196;84;25653;-75
2021/05/16 00:25:26;;;;;;;14.58;7.75;;;;;;;14.19;70.01;99503.13;1673998;84;25587;-75
2021/05/16 00:27:54;;;;;;;10.93;6.83;;;;;;;14.19;70.28;99497.35;1673477;84;26612;-75
2021/05/16 00:30:25;;;;;;;11.03;7.12;;;;;;;14.24;70.35;99494.59;1672695;84;25523;-75
2021/05/16 00:32:51;;;;;;;10.65;7.17;;;;;;;14.31;70.72;99490.11;1673212;84;25602;-75
2021/05/16 00:35:20;;;;;;;10.43;6.95;;;;;;;14.34;70.66;99485.74;1673199;84;25575;-75
2021/05/16 00:37:46;;;;;;;10.48;7.17;;;;;;;14.37;70.84;99484.80;1673056;84;25962;-74
2021/05/16 00:40:14;;;;;;;10.75;7.70;;;;;;;14.41;70.92;99485.20;1672228;84;25533;-76
2021/05/16 00:42:40;;;;;;;10.63;7.00;;;;;;;14.40;70.93;99479.15;1672650;84;25754;-75
2021/05/16 00:45:11;;;;;;;9.40;7.15;;;;;;;14.41;71.02;99474.17;1673183;84;25720;-75
2021/05/16 00:47:38;;;;;;;9.58;7.12;;;;;;;14.50;71.22;99472.61;1673692;84;25599;-75
2021/05/16 00:50:10;;;;;;;11.33;7.60;;;;;;;14.55;71.40;99466.23;1673695;84;25828;-75
2021/05/16 00:52:39;;;;;;;10.08;7.08;;;;;;;14.58;71.19;99468.44;1674377;84;25687;-75
2021/05/16 00:55:07;;;;;;;10.15;7.40;;;;;;;14.52;71.03;99462.69;1674410;84;25608;-76
2021/05/16 00:57:33;;;;;;;9.65;7.03;;;;;;;14.26;71.24;99449.98;1671709;84;25407;-75
2021/05/16 00:59:59;;;;;;;11.93;7.45;;;;;;;14.16;71.65;99454.41;1675418;84;25618;-75
2021/05/16 01:02:25;;;;;;;10.00;6.72;;;;;;;14.19;72.19;99470.27;1671530;84;25596;-75
2021/05/16 01:04:52;;;;;;;15.15;8.03;;;;;;;14.10;72.46;99448.66;1673398;84;26332;-75
2021/05/16 01:07:18;;;;;;;11.60;8.18;;;;;;;13.90;72.65;99445.34;1674685;84;26417;-75
2021/05/16 01:09:45;;;;;;;10.32;7.28;;;;;;;13.82;73.01;99454.25;1656349;84;26108;-75
2021/05/16 01:12:12;;;;;;;11.12;8.18;;;;;;;13.87;73.33;99458.89;1672364;84;31186;-75
2021/05/16 01:14:44;;;;;;;13.00;8.50;;;;;;;13.80;73.63;99449.71;1673869;84;25748;-75
2021/05/16 01:17:06;;;;;;;12.00;8.40;;;;;;;13.65;73.50;99438.16;1648195;84;25607;-75
2021/05/16 01:19:34;;;;;;;10.15;7.70;;;;;;;13.66;73.75;99446.33;1674701;84;26861;-75
2021/05/16 01:22:02;;;;;;;11.18;8.55;;;;;;;13.72;74.01;99456.03;1674001;84;25588;-75
2021/05/16 01:24:29;;;;;;;11.80;8.48;;;;;;;13.67;74.02;99447.16;1670650;84;25588;-75
2021/05/16 01:26:59;;;;;;;11.25;8.18;;;;;;;13.48;74.23;99438.34;1674118;84;25583;-75
2021/05/16 01:29:27;;;;;;;12.00;8.65;;;;;;;13.47;74.45;99449.31;1673630;84;25400;-75
2021/05/16 01:31:54;;;;;;;13.72;9.78;;;;;;;13.55;74.39;99445.66;1672967;84;25576;-74
2021/05/16 01:34:22;;;;;;;10.85;8.45;;;;;;;13.65;74.62;99445.24;1672485;84;26556;-73
2021/05/16 01:36:48;;;;;;;15.60;9.78;;;;;;;13.71;74.64;99441.78;1672302;84;25589;-73
2021/05/16 01:39:15;;;;;;;16.67;8.80;;;;;;;13.63;74.36;99442.02;1673573;84;25192;-75
2021/05/16 01:41:42;;;;;;;12.73;9.88;;;;;;;13.67;74.69;99438.77;1672354;84;25811;-75
2021/05/16 01:44:14;;;;;;;13.05;9.63;;;;;;;13.74;74.80;99436.91;1673776;84;25653;-75
2021/05/16 01:46:44;;;;;;;12.33;8.98;;;;;;;13.81;74.97;99433.47;1655269;84;25765;-76
2021/05/16 01:49:07;;;;;;;12.40;9.30;;;;;;;13.88;74.83;99428.45;1672072;84;25213;-75
2021/05/16 01:51:33;;;;;;;15.43;9.13;;;;;;;13.95;74.92;99429.24;1672411;84;34781;-76
2021/05/16 01:53:59;;;;;;;10.05;7.90;;;;;;;13.97;74.77;99432.98;1674462;84;32334;-75
2021/05/16 01:56:29;;;;;;;12.40;9.58;;;;;;;13.96;74.78;99428.22;1674294;84;25630;-76
2021/05/16 01:58:59;;;;;;;13.18;8.58;;;;;;;13.94;74.55;99425.50;1673328;84;25590;-75
2021/05/16 02:01:26;;;;;;;13.00;8.88;;;;;;;13.71;74.40;99424.70;1671935;84;26976;-75
2021/05/16 02:03:54;;;;;;;12.03;9.65;;;;;;;13.63;74.73;99424.94;1674287;84;25769;-75
2021/05/16 02:06:21;;;;;;;12.47;8.60;;;;;;;13.66;75.04;99431.89;1672981;84;25657;-75
2021/05/16 02:08:48;;;;;;;11.30;9.03;;;;;;;13.75;75.31;99427.23;1672277;84;25619;-76
2021/05/16 02:11:16;;;;;;;12.93;8.85;;;;;;;13.69;75.17;99420.16;1670917;84;25709;-75
2021/05/16 02:13:44;;;;;;;13.93;9.60;;;;;;;13.57;75.16;99431.03;1671515;84;25744;-75
2021/05/16 02:16:14;;;;;;;15.28;10.10;;;;;;;13.60;75.49;99428.79;1670447;84;26140;-75
2021/05/16 02:18:42;;;;;;;13.20;10.28;;;;;;;13.67;75.62;99426.95;1667455;84;26584;-76
2021/05/16 02:21:11;;;;;;;14.38;10.23;;;;;;;13.76;75.52;99432.26;1672438;84;26247;-75
2021/05/16 02:23:40;;;;;;;13.35;11.10;;;;;;;13.81;75.50;99425.08;1672424;84;25253;-75
2021/05/16 02:26:08;;;;;;;13.53;10.50;;;;;;;13.85;75.38;99423.63;1674076;84;26190;-75
2021/05/16 02:28:34;;;;;;;16.75;11.48;;;;;;;13.86;75.24;99419.17;1672523;84;25681;-75
2021/05/16 02:31:08;;;;;;;14.78;11.00;;;;;;;13.85;75.32;99423.63;1673806;84;25189;-75
2021/05/16 02:33:34;;;;;;;13.98;11.03;;;;;;;13.78;75.02;99420.25;1671927;84;26491;-75
2021/05/16 02:36:00;;;;;;;16.82;11.57;;;;;;;13.76;75.09;99420.44;1671676;84;33214;-74
2021/05/16 02:38:26;;;;;;;16.05;10.85;;;;;;;13.76;75.09;99420.44;1675214;84;31654;-75
2021/05/16 02:40:52;;;;;;;16.30;10.88;;;;;;;13.60;75.20;99420.11;1674292;84;35221;-74
2021/05/16 02:43:18;;;;;;;18.37;11.22;;;;;;;13.59;75.66;99418.00;1673518;84;26124;-74
2021/05/16 02:45:44;;;;;;;15.72;11.38;;;;;;;13.54;75.43;99418.61;1673647;83;26487;-74
2021/05/16 02:48:12;;;;;;;18.05;11.73;;;;;;;13.56;75.71;99427.61;1672480;84;25219;-75
2021/05/16 02:50:38;;;;;;;15.60;11.65;;;;;;;13.62;75.80;99426.77;1674307;84;31309;-75
2021/05/16 02:53:05;;;;;;;15.55;11.97;;;;;;;13.67;75.70;99424.84;1671436;84;25522;-75
2021/05/16 02:55:35;;;;;;;13.70;10.80;;;;;;;13.61;75.55;99421.20;1672547;84;25655;-75
2021/05/16 02:58:02;;;;;;;14.87;11.57;;;;;;;13.66;75.70;99427.15;1672870;84;26318;-75
2021/05/16 03:00:30;;;;;;;14.85;11.90;;;;;;;13.65;75.62;99425.03;1672458;84;25537;-75
2021/05/16 03:02:56;;;;;;;14.05;11.48;;;;;;;13.66;75.56;99427.95;1672093;84;31192;-76
2021/05/16 03:05:22;;;;;;;14.93;11.70;;;;;;;13.64;75.56;99424.75;1673708;84;34784;-75
2021/05/16 03:07:48;;;;;;;16.40;12.35;;;;;;;13.63;75.56;99426.25;1672873;84;25496;-76
2021/05/16 03:10:14;;;;;;;17.25;11.97;;;;;;;13.60;75.62;99423.53;1673887;84;25723;-75
2021/05/16 03:12:41;;;;;;;17.37;12.53;;;;;;;13.59;75.64;99425.88;1673793;84;25576;-76
2021/05/16 03:15:10;;;;;;;17.20;12.63;;;;;;;13.58;75.68;99419.50;1646271;84;25638;-75
2021/05/16 03:17:36;;;;;;;19.23;12.25;;;;;;;13.59;75.74;99422.45;1673673;84;25803;-75
2021/05/16 03:20:04;;;;;;;18.12;13.10;;;;;;;13.51;75.54;99419.54;1673530;84;32844;-75
2021/05/16 03:22:30;;;;;;;15.08;12.33;;;;;;;13.50;75.87;99413.97;1674334;84;25783;-75
2021/05/16 03:24:58;;;;;;;15.50;11.90;;;;;;;13.55;75.95;99415.47;1646881;84;25707;-75
2021/05/16 03:27:24;;;;;;;15.48;12.73;;;;;;;13.57;75.75;99413.97;1673224;84;25610;-76
2021/05/16 03:29:50;;;;;;;15.83;12.43;;;;;;;13.58;75.79;99423.44;1673935;84;25635;-75
2021/05/16 03:32:15;;;;;;;15.45;12.37;;;;;;;13.59;75.78;99425.08;1673630;84;32354;-73
2021/05/16 03:34:41;;;;;;;20.23;12.98;;;;;;;13.58;75.78;99432.63;1671660;84;26044;-74
2021/05/16 03:37:07;;;;;;;19.75;11.78;;;;;;;13.57;75.79;99494.05;1672844;84;33163;-73
2021/05/16 03:39:33;;;;;;;16.12;12.60;;;;;;;13.45;75.71;99500.41;1671595;84;31332;-75
2021/05/16 03:41:59;;;;;;;15.43;12.40;;;;;;;13.33;75.97;99504.17;1674086;84;25580;-75
2021/05/16 03:44:25;;;;;;;15.80;10.93;;;;;;;13.21;76.24;99492.66;1675669;84;32279;-75
2021/05/16 03:46:52;;;;;;;15.75;10.32;;;;;;;13.11;76.46;99504.87;1673479;84;26473;-76
2021/05/16 03:49:18;;;;;;;14.00;10.10;;;;;;;13.09;76.88;99499.01;1673172;84;25682;-76
2021/05/16 03:51:45;;;;;;;12.28;10.00;;;;;;;13.04;76.68;99472.57;1671304;84;30211;-75
2021/05/16 03:54:12;;;;;;;16.45;10.35;;;;;;;13.05;76.86;99471.58;1672879;84;25596;-75
2021/05/16 03:56:38;;;;;;;12.25;8.95;;;;;;;13.10;76.96;99477.83;1648446;84;26257;-75
2021/05/16 03:59:05;;;;;;;14.50;9.48;;;;;;;13.14;76.96;99475.59;1674027;84;25817;-75
2021/05/16 04:01:31;;;;;;;10.78;8.48;;;;;;;13.13;76.95;99470.06;1673117;84;25635;-74
2021/05/16 04:03:57;;;;;;;12.50;8.45;;;;;;;13.17;77.06;99461.27;1674334;84;25611;-75
2021/05/16 04:06:23;;;;;;;10.63;8.30;;;;;;;13.17;77.08;99455.51;1674141;84;25783;-75
2021/05/16 04:08:49;;;;;;;11.18;8.53;;;;;;;13.18;77.22;99458.45;1674098;84;32313;-74
2021/05/16 04:11:15;;;;;;;13.88;8.23;;;;;;;13.25;77.38;99450.55;1647097;84;27261;-75
2021/05/16 04:13:41;;;;;;;10.15;8.38;;;;;;;13.32;77.46;99447.45;1672406;84;25698;-75
2021/05/16 04:16:07;;;;;;;12.35;7.50;;;;;;;13.40;77.52;99442.50;1673615;84;29953;-75
2021/05/16 04:18:33;;;;;;;14.75;8.18;;;;;;;13.45;77.65;99436.92;1672458;84;34713;-75
2021/05/16 04:21:01;;;;;;;9.88;7.72;;;;;;;13.51;77.74;99436.09;1670302;84;32841;-75
2021/05/16 04:23:27;;;;;;;10.05;8.20;;;;;;;13.56;77.78;99434.17;1672462;84;26349;-75
2021/05/16 04:25:53;;;;;;;16.37;12.33;;;;;;;13.60;77.83;99427.98;1672954;84;25641;-75
2021/05/16 04:28:19;;;;;;;16.27;12.07;;;;;;;13.66;77.84;99420.07;1673079;84;25427;-75
2021/05/16 04:30:45;;;;;;;15.13;11.15;;;;;;;13.67;77.70;99417.77;1666081;84;34746;-75
2021/05/16 04:33:12;;;;;;;12.90;9.68;;;;;;;13.68;77.69;99412.00;1671770;84;32634;-75
2021/05/16 04:35:37;;;;;;;13.35;9.55;;;;;;;13.73;77.94;99413.50;1674118;84;25587;-73
2021/05/16 04:38:03;;;;;;;12.90;9.80;;;;;;;13.80;77.99;99415.56;1673868;84;33147;-75
2021/05/16 04:40:29;;;;;;;10.28;8.85;;;;;;;13.82;77.94;99414.86;1673463;84;30365;-75
2021/05/16 04:42:55;;;;;;;10.55;9.25;;;;;;;13.84;77.97;99422.03;1673395;84;25640;-75
2021/05/16 04:45:22;;;;;;;12.60;9.33;;;;;;;13.87;77.99;99415.04;1672620;84;25208;-73
2021/05/16 04:47:47;;;;;;;11.93;9.03;;;;;;;13.89;78.03;99409.08;1671005;84;25559;-75
2021/05/16 04:50:15;;;;;;;11.12;8.38;;;;;;;13.92;78.07;99407.85;1672425;84;33604;-75
2021/05/16 04:52:41;;;;;;;12.50;9.18;;;;;;;13.93;78.10;99401.05;1671863;84;25847;-74
2021/05/16 04:55:08;;;;;;;11.60;9.20;;;;;;;13.94;78.13;99404.00;1673786;84;26430;-74
2021/05/16 04:57:37;;;;;;;13.10;9.28;;;;;;;13.96;78.21;99405.88;1672504;84;25201;-75
2021/05/16 05:00:05;;;;;;;12.33;9.98;;;;;;;14.01;78.30;99397.89;1671501;84;25645;-75
2021/05/16 05:02:35;;;;;;;12.00;9.65;;;;;;;14.01;78.16;99390.02;1673742;84;26345;-75
2021/05/16 05:05:03;;;;;;;12.88;10.23;;;;;;;14.03;78.24;99388.78;1672388;84;26396;-75
2021/05/16 05:07:30;;;;;;;12.82;9.63;;;;;;;14.08;78.38;99390.27;1673885;84;25616;-73
2021/05/16 05:09:56;;;;;;;14.10;10.85;;;;;;;14.14;78.46;99389.94;1673885;84;25528;-74
2021/05/16 05:12:22;;;;;;;12.53;9.53;;;;;;;14.19;78.52;99381.71;1672328;84;25980;-74
2021/05/16 05:14:48;;;;;;;13.72;9.95;;;;;;;14.25;78.53;99382.68;1673347;84;33471;-74
2021/05/16 05:17:13;;;;;;;14.20;10.95;;;;;;;14.30;78.48;99389.42;1673170;84;31240;-75
2021/05/16 05:19:39;;;;;;;13.50;10.05;;;;;;;14.32;78.42;99391.33;1674083;84;34770;-75
2021/05/16 05:22:05;;;;;;;13.72;9.93;;;;;;;14.33;78.40;99389.51;1674229;84;32290;-75
2021/05/16 05:24:31;;;;;;;13.85;10.20;;;;;;;14.36;78.32;99385.93;1675335;84;26157;-75
2021/05/16 05:26:57;;;;;;;14.00;11.05;;;;;;;14.37;78.21;99386.73;1671917;84;25592;-74
2021/05/16 05:29:23;;;;;;;19.80;11.22;;;;;;;14.43;78.37;99388.02;1673960;84;31211;-75
2021/05/16 05:31:49;;;;;;;13.72;11.50;;;;;;;14.32;78.43;99373.42;1674640;84;35018;-72
2021/05/16 05:34:15;;;;;;;13.65;11.70;;;;;;;14.32;78.43;99373.42;1673897;84;25502;-73
2021/05/16 05:36:41;;;;;;;15.48;10.82;;;;;;;14.46;78.31;99399.09;1674592;84;25690;-73
2021/05/16 05:39:07;;;;;;;14.03;11.12;;;;;;;14.48;78.36;99397.87;1673862;84;25359;-73
2021/05/16 05:41:34;;;;;;;15.65;10.90;;;;;;;14.49;78.22;99402.12;1675041;84;25724;-74
2021/05/16 05:44:01;;;;;;;14.03;10.65;;;;;;;14.51;78.10;99400.06;1673199;84;25195;-74
2021/05/16 05:46:29;;;;;;;14.93;10.65;;;;;;;14.57;78.51;99399.78;1673222;84;25824;-75
2021/05/16 05:48:55;;;;;;;13.65;10.28;;;;;;;14.57;78.15;99401.09;1672155;84;25578;-73
2021/05/16 05:51:21;;;;;;;15.58;10.90;;;;;;;14.55;78.34;99401.30;1672648;84;33111;-73
2021/05/16 05:53:47;;;;;;;15.38;12.18;;;;;;;14.60;78.29;99401.97;1673023;84;25437;-74
2021/05/16 05:56:13;;;;;;;15.15;10.35;;;;;;;14.63;78.24;99408.91;1674489;84;25649;-75
2021/05/16 05:58:40;;;;;;;14.60;11.50;;;;;;;14.64;78.08;99401.83;1673007;84;32337;-75
2021/05/16 06:01:06;;;;;;;13.48;10.53;;;;;;;14.67;78.15;99405.34;1674619;84;26370;-75
2021/05/16 06:03:32;;;;;;;11.35;9.80;;;;;;;14.76;78.21;99406.70;1672578;84;33186;-73
2021/05/16 06:05:58;;;;;;;13.25;10.58;;;;;;;14.77;77.80;99401.72;1673538;84;31620;-73
2021/05/16 06:08:24;;;;;;;13.53;10.32;;;;;;;14.75;77.72;99405.06;1673228;84;35049;-75
2021/05/16 06:10:50;;;;;;;14.07;11.20;;;;;;;14.73;77.86;99395.29;1674704;84;32912;-75
2021/05/16 06:13:15;;;;;;;13.40;10.95;;;;;;;14.77;78.21;99397.77;1675553;84;26452;-75
2021/05/16 06:15:41;;;;;;;16.12;11.18;;;;;;;14.86;78.42;99404.35;1673971;84;33092;-75
2021/05/16 06:18:07;;;;;;;13.78;10.38;;;;;;;14.95;78.47;99389.12;1675891;84;31707;-75
2021/05/16 06:20:34;;;;;;;13.32;10.65;;;;;;;15.03;78.46;99391.95;1673822;84;35173;-75
2021/05/16 06:23:03;;;;;;;16.55;10.90;;;;;;;15.11;78.16;99387.72;1673077;84;25500;-75
2021/05/16 06:25:28;;;;;;;13.90;10.40;;;;;;;15.09;77.80;99395.05;1672907;84;25618;-75
2021/05/16 06:27:58;;;;;;;15.32;11.08;;;;;;;15.09;77.68;99397.16;1674692;84;33082;-75
2021/05/16 06:30:24;;;;;;;17.87;10.58;;;;;;;15.12;77.55;99397.77;1673556;84;26296;-75
2021/05/16 06:32:51;;;;;;;15.48;10.53;;;;;;;15.15;77.48;99398.64;1674343;84;25513;-75
2021/05/16 06:35:17;;;;;;;12.73;10.50;;;;;;;15.17;77.30;99404.47;1674242;84;25594;-75
2021/05/16 06:37:45;;;;;;;12.95;10.00;;;;;;;15.18;76.99;99400.83;1674047;84;25543;-75
2021/05/16 06:40:13;;;;;;;14.00;10.13;;;;;;;15.17;76.99;99401.83;1673487;84;25618;-75
2021/05/16 06:42:42;;;;;;;17.32;11.83;;;;;;;15.22;77.06;99404.13;1674531;84;26504;-75
2021/05/16 06:45:10;;;;;;;18.67;12.13;;;;;;;15.25;77.17;99398.42;1672869;84;25669;-75
2021/05/16 06:47:36;;;;;;;15.75;12.13;;;;;;;15.44;77.78;99403.66;1674444;84;25504;-74
2021/05/16 06:50:06;;;;;;;15.72;11.48;;;;;;;15.54;77.48;99400.01;1673451;84;25501;-75
2021/05/16 06:52:32;;;;;;;17.95;14.10;;;;;;;15.70;77.75;99400.75;1673790;84;25673;-75
2021/05/16 06:54:57;;;;;;;14.93;12.63;;;;;;;15.77;77.36;99404.63;1674489;84;31153;-75
2021/05/16 06:57:23;;;;;;;17.07;11.90;;;;;;;15.82;77.43;99402.11;1673088;84;34791;-75
2021/05/16 06:59:49;;;;;;;15.03;12.45;;;;;;;15.89;77.59;99402.84;1673667;84;32423;-75
2021/05/16 07:02:15;;;;;;;14.07;11.70;;;;;;;15.97;77.42;99397.77;1672827;84;26335;-74
2021/05/16 07:04:43;;;;;;;16.52;12.37;;;;;;;16.04;77.44;99400.30;1673002;84;33168;-75
2021/05/16 07:07:10;;;;;;;14.13;12.05;;;;;;;16.12;77.34;99394.22;1671845;84;25860;-75
2021/05/16 07:09:37;;;;;;;16.12;12.00;;;;;;;16.23;77.29;99393.94;1673526;84;26449;-75
2021/05/16 07:12:04;;;;;;;15.28;11.20;;;;;;;16.35;77.17;99384.75;1672926;84;25590;-75
2021/05/16 07:14:30;;;;;;;15.08;10.23;;;;;;;16.47;77.24;99384.23;1673360;84;25551;-75
2021/05/16 07:16:56;;;;;;;14.58;10.55;;;;;;;16.63;76.96;99384.89;1675076;84;33631;-75
2021/05/16 07:19:23;;;;;;;18.45;11.18;;;;;;;16.74;76.53;99391.73;1674645;84;31835;-75
2021/05/16 07:21:49;;;;;;;15.15;11.03;;;;;;;16.77;75.94;99387.34;1672717;84;25813;-75
2021/05/16 07:24:15;;;;;;;16.62;11.40;;;;;;;16.79;75.40;99388.72;1674234;84;25195;-76
2021/05/16 07:26:41;;;;;;;15.32;11.25;;;;;;;16.84;75.69;99392.80;1674317;84;26557;-75
2021/05/16 07:29:07;;;;;;;18.25;10.40;;;;;;;16.97;76.54;99398.86;1675096;84;33497;-76
2021/05/16 07:31:33;;;;;;;13.45;10.32;;;;;;;17.17;75.73;99386.11;1673209;84;31398;-76
2021/05/16 07:33:58;;;;;;;13.88;9.93;;;;;;;17.23;75.27;99384.37;1673943;84;35074;-76
2021/05/16 07:36:24;;;;;;;17.07;10.00;;;;;;;17.31;74.94;99391.94;1674189;84;32331;-75
2021/05/16 07:38:50;;;;;;;17.65;9.95;;;;;;;17.36;74.96;99387.28;1674696;84;25514;-75
2021/05/16 07:41:16;;;;;;;13.68;11.00;;;;;;;17.55;75.23;99386.61;1674290;84;34204;-76
2021/05/16 07:43:42;;;;;;;12.15;10.00;;;;;;;17.68;74.20;99387.13;1673532;84;31258;-76
2021/05/16 07:46:07;;;;;;;14.33;10.30;;;;;;;17.60;73.34;99380.10;1649708;84;34737;-75
2021/05/16 07:48:33;;;;;;;12.40;10.40;;;;;;;17.51;72.90;99379.64;1675369;84;32352;-75
2021/05/16 07:51:01;;;;;;;12.60;10.48;;;;;;;17.55;73.26;99377.36;1671839;84;25543;-76
2021/05/16 07:53:28;;;;;;;11.93;9.50;;;;;;;17.62;73.39;99374.04;1673937;84;25643;-76
2021/05/16 07:55:54;;;;;;;12.03;9.30;;;;;;;17.72;72.97;99379.53;1674027;84;25753;-76
2021/05/16 07:58:21;;;;;;;12.80;9.48;;;;;;;17.68;72.15;99381.84;1673979;84;34737;-76
2021/05/16 08:00:47;;;;;;;14.25;8.68;;;;;;;17.59;71.70;99384.56;1674054;84;25783;-74
2021/05/16 08:03:13;;;;;;;14.50;9.50;;;;;;;17.59;72.09;99381.13;1673123;84;25603;-75
2021/05/16 08:05:38;;;;;;;14.98;9.03;;;;;;;17.66;72.18;99383.12;1669891;84;33197;-76
2021/05/16 08:08:04;;;;;;;13.25;8.03;;;;;;;17.72;71.98;99378.20;1671853;84;31292;-75
2021/05/16 08:10:31;;;;;;;11.35;7.33;;;;;;;17.80;72.05;99372.57;1673750;83;25521;-75
2021/05/16 08:12:57;;;;;;;10.82;7.22;;;;;;;17.96;72.24;99368.36;1673733;84;25922;-75
2021/05/16 08:15:25;;;;;;;13.00;7.47;;;;;;;18.13;71.87;99361.25;1675352;84;25742;-75
2021/05/16 08:17:52;;;;;;;9.50;6.87;;;;;;;18.28;71.92;99353.27;1675190;84;25201;-75
2021/05/16 08:20:19;;;;;;;12.10;7.10;;;;;;;18.34;70.91;99354.45;1672586;84;25627;-75
2021/05/16 08:22:45;;;;;;;12.05;7.10;;;;;;;18.39;70.55;99349.77;1674029;84;26416;-75
2021/05/16 08:25:13;;;;;;;8.58;6.60;;;;;;;18.47;70.38;99352.51;1673580;84;25492;-75
2021/05/16 08:27:42;;;;;;;9.75;6.33;;;;;;;18.41;69.42;99352.45;1648550;84;26436;-76
2021/05/16 08:30:09;;;;;;;11.15;8.28;;;;;;;18.43;69.27;99354.84;1674162;84;25729;-75
2021/05/16 08:32:36;;;;;;;13.70;10.68;;;;;;;18.44;69.36;99346.37;1673665;84;26168;-73
2021/05/16 08:35:03;;;;;;;11.93;7.53;;;;;;;18.46;68.83;99352.23;1671843;84;25651;-75
2021/05/16 08:37:28;;;;;;;10.43;6.87;;;;;;;18.45;68.41;99354.62;1672946;84;25524;-74
2021/05/16 08:39:54;;;;;;;11.45;6.95;;;;;;;18.49;68.95;99350.43;1674612;84;26055;-75
2021/05/16 08:42:23;;;;;;;16.55;11.35;;;;;;;18.58;68.54;99351.64;1672614;84;25820;-76
2021/05/16 08:44:49;;;;;;;17.27;13.10;;;;;;;18.71;68.93;99348.63;1674272;84;25586;-74
2021/05/16 08:47:18;;;;;;;24.18;17.55;;;;;;;18.74;67.89;99349.53;1671828;84;33896;-74
2021/05/16 08:49:44;;;;;;;13.00;6.93;;;;;;;18.74;67.91;99348.67;1646894;84;25624;-74
2021/05/16 08:52:10;;;;;;;8.85;6.00;;;;;;;18.80;67.72;99344.58;1673833;84;26458;-74
2021/05/16 08:54:36;;;;;;;8.78;6.47;;;;;;;18.80;67.36;99344.58;1673710;84;33245;-74
2021/05/16 08:57:02;;;;;;;9.38;6.67;;;;;;;18.87;67.57;99347.03;1674069;84;31735;-75
2021/05/16 08:59:28;;;;;;;12.35;7.08;;;;;;;18.96;67.01;99343.44;1672808;84;34788;-74
2021/05/16 09:02:01;;;;;;;11.28;6.15;;;;;;;19.02;67.22;99344.59;1673618;84;25671;-74
2021/05/16 09:04:35;;;;;;;11.40;7.47;;;;;;;19.10;66.19;99343.88;1672450;84;25767;-73
2021/05/16 09:07:02;;;;;;;10.80;6.28;;;;;;;19.14;66.96;99346.33;1673976;84;25682;-73
2021/05/16 09:09:39;;;;;;;8.68;6.05;;;;;;;19.21;66.39;99348.28;1672075;84;25719;-75
2021/05/16 09:12:12;;;;;;;7.58;5.67;;;;;;;19.25;65.88;99340.89;1673591;84;25677;-73
2021/05/16 09:14:45;;;;;;;10.98;7.28;;;;;;;19.30;65.62;99344.14;1675187;84;25645;-75
2021/05/16 09:17:35;;;;;;;9.18;6.42;;;;;;;19.30;65.07;99339.63;1648752;84;25979;-75
2021/05/16 09:20:05;;;;;;;;;;;;;;;19.38;65.52;99342.91;1676569;84;25597;-76
2021/05/16 09:22:43;;;;;;;9.20;7.00;;;;;;;19.45;64.60;99347.47;1674211;84;25804;-75
2021/05/16 09:25:20;;;;;;;9.83;6.45;;;;;;;19.47;65.35;99346.17;1674608;84;25974;-74
2021/05/16 09:27:50;;;;;;;11.75;6.55;;;;;;;19.53;64.28;99345.70;1673648;84;25530;-74
2021/05/16 09:30:23;;;;;;;9.73;7.03;;;;;;;19.52;64.31;99349.42;1670514;84;25997;-73
2021/05/16 09:33:03;;;;;;;8.68;6.47;;;;;;;19.48;64.70;99349.66;1673254;84;25532;-75
2021/05/16 09:35:37;;;;;;;10.35;6.78;;;;;;;19.50;63.98;99351.51;1673849;84;25678;-73
2021/05/16 09:38:10;;;;;;;10.05;5.90;;;;;;;19.42;64.31;99345.32;1674676;84;25667;-75
2021/05/16 09:40:48;;;;;;;10.18;6.83;;;;;;;19.43;64.71;99342.44;1672751;84;25623;-74
2021/05/16 09:43:27;;;;;;;8.28;5.80;;;;;;;19.60;64.94;99336.25;1674472;84;26557;-74
2021/05/16 09:46:05;;;;;;;8.53;5.83;;;;;;;19.67;64.02;99339.02;1671031;84;25613;-73
2021/05/16 09:48:44;;;;;;;13.80;6.80;;;;;;;19.69;63.66;99339.55;1673026;84;25725;-72
2021/05/16 09:51:19;;;;;;;8.15;5.78;;;;;;;19.58;63.30;99327.20;1673152;84;25693;-72
2021/05/16 09:53:59;;;;;;;8.05;5.28;;;;;;;19.50;63.55;99330.30;1673330;84;25526;-73
2021/05/16 09:56:30;;;;;;;8.75;5.83;;;;;;;19.49;63.42;99332.16;1673246;84;25660;-72
2021/05/16 09:59:06;;;;;;;6.75;4.67;;;;;;;19.56;63.86;99328.01;1671328;84;25618;-73
2021/05/16 10:01:32;;;;;;;7.25;4.25;;;;;;;19.56;63.28;99324.03;1672417;83;25603;-73
2021/05/16 10:04:01;;;;;;;7.10;4.35;;;;;;;19.66;62.98;99314.86;1674707;84;26526;-71
2021/05/16 10:06:30;;;;;;;6.80;4.55;;;;;;;19.77;62.59;99309.13;1673101;84;25638;-72
2021/05/16 10:08:56;;;;;;;7.70;5.83;;;;;;;19.85;62.95;99306.02;1674703;84;26317;-72
2021/05/16 10:11:27;;;;;;;13.35;8.78;;;;;;;20.02;63.11;99301.13;1673415;84;25264;-72
2021/05/16 10:14:16;;;;;;;8.23;4.60;;;;;;;20.15;62.58;99295.39;1674659;84;25636;-72
2021/05/16 10:16:46;;;;;;;8.93;4.78;;;;;;;20.23;61.71;99300.76;1674010;84;25625;-72
2021/05/16 10:19:20;;;;;;;4.80;3.50;;;;;;;20.28;61.49;99295.49;1674053;84;25526;-72
2021/05/16 10:22:13;;;;;;;6.67;3.77;;;;;;;20.40;60.71;99286.80;1671728;84;26355;-72
2021/05/16 10:24:50;;;;;;;6.80;3.80;;;;;;;20.53;60.86;99280.25;1673150;84;25589;-74
2021/05/16 10:27:26;;;;;;;5.87;3.30;;;;;;;20.57;59.92;99270.73;1672658;84;25285;-72
2021/05/16 10:30:01;;;;;;;6.62;4.72;;;;;;;20.62;60.06;99264.12;1672120;84;25551;-72
2021/05/16 10:32:38;;;;;;;3.60;2.98;;;;;;;20.69;60.51;99266.56;1673679;84;25740;-71
2021/05/16 10:35:10;;;;;;;6.05;2.98;;;;;;;20.77;59.65;99266.06;1673928;84;25629;-73
2021/05/16 10:37:53;;;;;;;5.67;3.02;;;;;;;20.79;59.36;99262.63;1673868;84;25655;-73
2021/05/16 10:40:33;;;;;;;4.75;3.20;;;;;;;20.78;58.96;99258.36;1672755;84;26423;-72
2021/05/16 10:43:24;;;;;;;7.15;3.40;;;;;;;20.65;58.08;99237.05;1674122;84;25634;-73
2021/05/16 10:45:51;;;;;;;7.50;3.40;;;;;;;20.65;58.08;99237.05;1674477;84;25650;-72
2021/05/16 10:48:20;;;;;;;4.03;2.72;;;;;;;20.78;57.69;99249.06;1674771;84;25545;-72
2021/05/16 10:50:58;;;;;;;4.60;2.58;;;;;;;20.77;57.58;99260.22;1674332;84;25214;-72
2021/05/16 10:53:31;;;;;;;5.22;2.77;;;;;;;20.73;57.27;99259.13;1675274;84;25645;-72
2021/05/16 10:56:13;;;;;;;4.53;2.47;;;;;;;20.68;57.29;99259.13;1674103;84;25188;-72
2021/05/16 10:58:44;;;;;;;4.22;2.22;;;;;;;20.66;56.87;99261.77;1674800;84;25838;-73
2021/05/16 11:01:15;;;;;;;5.55;2.40;;;;;;;20.67;56.95;99262.82;1671743;84;25627;-72
2021/05/16 11:03:58;;;;;;;4.87;2.02;;;;;;;20.59;55.67;99261.98;1673459;84;25615;-72
2021/05/16 11:06:41;;;;;;;4.20;2.05;;;;;;;20.53;55.92;99265.64;1671317;83;26628;-72
2021/05/16 11:09:13;;;;;;;4.47;2.05;;;;;;;20.52;56.11;99262.20;1674310;84;25609;-72
2021/05/16 11:11:54;;;;;;;3.30;2.25;;;;;;;20.52;55.82;99259.55;1674475;84;25583;-71
2021/05/16 11:14:35;;;;;;;3.75;2.37;;;;;;;20.50;54.76;99252.89;1675128;84;25567;-71
2021/05/16 11:17:09;;;;;;;3.75;2.25;;;;;;;20.43;55.68;99257.62;1673409;84;26223;-71
2021/05/16 11:19:36;;;;;;;3.67;2.50;;;;;;;20.45;55.10;99254.98;1674664;84;25512;-72
2021/05/16 11:22:14;;;;;;;10.88;2.75;;;;;;;20.39;55.69;99258.13;1674241;84;25567;-71
2021/05/16 11:24:45;;;;;;;4.47;2.30;;;;;;;20.41;55.66;99260.55;1672695;84;25600;-73
2021/05/16 11:27:19;;;;;;;5.22;2.70;;;;;;;20.40;55.96;99253.63;1673623;84;25589;-73
2021/05/16 11:29:51;;;;;;;8.40;2.50;;;;;;;20.31;55.13;99256.49;1675552;84;25585;-73